This is the latest recevied weather packets stored in our database for station/object AD7ZD. If no packets are shown the sender has not sent any weather packets the latest 1 day(s).
| Time | Temp. | Humidity | Pressure | Rain* | Wind** | Luminosity | Snow |
|---|---|---|---|---|---|---|---|
| 1777993835 | 7.78° C | 94% | 1009.8 hPa | 0 mm | 0.89 m/s, 225° | 66 W/m² | - |
| 1777993531 | 7.78° C | 94% | 1010 hPa | 0 mm | 1.34 m/s, 258° | 60 W/m² | - |
| 1777993227 | 7.78° C | 94% | 1009.8 hPa | 0 mm | 1.34 m/s, 270° | 60 W/m² | - |
| 1777992923 | 8.33° C | 95% | 1009.7 hPa | 0 mm | 1.34 m/s, 240° | 75 W/m² | - |
| 1777992622 | 8.33° C | 94% | 1009.6 hPa | 0 mm | 1.34 m/s, 263° | 61 W/m² | - |
| 1777992319 | 8.33° C | 94% | 1009.5 hPa | 0 mm | 0.89 m/s, 221° | 76 W/m² | - |
| 1777992016 | 8.33° C | 94% | 1009.4 hPa | 0 mm | 1.79 m/s, 180° | 109 W/m² | - |
| 1777991714 | 7.78° C | 94% | 1009.4 hPa | 0.51 mm | 0 m/s | 89 W/m² | - |
| 1777991411 | 7.78° C | 94% | 1009.5 hPa | 0.51 mm | 1.34 m/s, 220° | 71 W/m² | - |
| 1777991108 | 7.78° C | 94% | 1009.5 hPa | 0 mm | 0.89 m/s, 216° | 40 W/m² | - |
| 1777990805 | 7.78° C | 94% | 1009.4 hPa | 0.51 mm | 0 m/s | 17 W/m² | - |
| 1777990503 | 7.78° C | 94% | 1009.5 hPa | 1.27 mm | 0.45 m/s, 282° | 10 W/m² | - |
| 1777990199 | 7.78° C | 94% | 1009.2 hPa | 1.27 mm | 0.45 m/s, 263° | 11 W/m² | - |
| 1777989896 | 7.78° C | 94% | 1009.4 hPa | 1.78 mm | 0.89 m/s, 255° | 10 W/m² | - |
| 1777989592 | 7.78° C | 94% | 1009.4 hPa | 1.78 mm | 0 m/s | 9 W/m² | - |
| 1777989289 | 7.78° C | 94% | 1009.4 hPa | 1.78 mm | 0 m/s | 9 W/m² | - |
| 1777988985 | 7.78° C | 94% | 1009.3 hPa | 1.27 mm | 0.45 m/s, 23° | 2 W/m² | - |
| 1777988682 | 7.78° C | 94% | 1009.3 hPa | 1.27 mm | 0 m/s | 2 W/m² | - |
| 1777988378 | 7.78° C | 93% | 1009 hPa | 1.27 mm | 0.89 m/s, 60° | 0 W/m² | - |
| 1777988076 | 7.78° C | 93% | 1008.9 hPa | 1.27 mm | 1.34 m/s, 84° | 0 W/m² | - |
| 1777987771 | 7.78° C | 93% | 1008.9 hPa | 1.78 mm | 0.89 m/s, 71° | 0 W/m² | - |
| 1777987468 | 7.78° C | 93% | 1008.5 hPa | 2.29 mm | 0.45 m/s, 66° | 0 W/m² | - |
| 1777987166 | 7.78° C | 93% | 1008.7 hPa | 1.78 mm | 0.45 m/s, 66° | 0 W/m² | - |
| 1777986863 | 7.78° C | 93% | 1008.6 hPa | 2.29 mm | 0 m/s | 0 W/m² | - |
| 1777986560 | 7.78° C | 93% | 1008.4 hPa | 2.29 mm | 0.45 m/s, 294° | 0 W/m² | - |
* Rain latest hour (hover to see other rain measurements)
** Current wind speed in m/s (hover to see current wind gust speed)